sensor_id;sensor_type;location;lat;lon;timestamp;temperature;humidity
55795;DHT22;41716;51.910;4.430;2023-01-04T00:00:50;10.50;99.90
55795;DHT22;41716;51.910;4.430;2023-01-04T00:05:53;9.20;99.90
55795;DHT22;41716;51.910;4.430;2023-01-04T00:10:59;9.50;99.90
55795;DHT22;41716;51.910;4.430;2023-01-04T00:16:04;10.10;99.90
55795;DHT22;41716;51.910;4.430;2023-01-04T00:21:09;10.00;99.90
55795;DHT22;41716;51.910;4.430;2023-01-04T00:26:13;10.00;99.90
55795;DHT22;41716;51.910;4.430;2023-01-04T00:31:15;10.50;99.90
55795;DHT22;41716;51.910;4.430;2023-01-04T00:36:18;9.30;99.90
55795;DHT22;41716;51.910;4.430;2023-01-04T00:41:20;10.00;99.90
55795;DHT22;41716;51.910;4.430;2023-01-04T00:46:22;9.60;99.90
55795;DHT22;41716;51.910;4.430;2023-01-04T00:51:25;9.60;99.90
55795;DHT22;41716;51.910;4.430;2023-01-04T00:56:27;10.60;99.90
55795;DHT22;41716;51.910;4.430;2023-01-04T01:01:31;10.60;99.90
55795;DHT22;41716;51.910;4.430;2023-01-04T01:06:34;10.20;99.90
55795;DHT22;41716;51.910;4.430;2023-01-04T01:11:36;10.10;99.90
55795;DHT22;41716;51.910;4.430;2023-01-04T01:16:39;10.50;99.90
55795;DHT22;41716;51.910;4.430;2023-01-04T01:21:42;9.80;99.90
55795;DHT22;41716;51.910;4.430;2023-01-04T01:26:44;9.70;99.90
55795;DHT22;41716;51.910;4.430;2023-01-04T01:31:46;11.00;99.90
55795;DHT22;41716;51.910;4.430;2023-01-04T01:36:49;11.00;99.90
55795;DHT22;41716;51.910;4.430;2023-01-04T01:41:50;10.90;99.90
55795;DHT22;41716;51.910;4.430;2023-01-04T01:46:55;11.30;99.90
55795;DHT22;41716;51.910;4.430;2023-01-04T01:51:58;10.90;99.90
55795;DHT22;41716;51.910;4.430;2023-01-04T01:57:03;10.40;99.90
55795;DHT22;41716;51.910;4.430;2023-01-04T02:02:06;10.50;99.90
55795;DHT22;41716;51.910;4.430;2023-01-04T02:07:10;10.50;99.90
55795;DHT22;41716;51.910;4.430;2023-01-04T02:12:13;10.80;99.90
55795;DHT22;41716;51.910;4.430;2023-01-04T02:17:22;11.30;99.90
55795;DHT22;41716;51.910;4.430;2023-01-04T02:28:22;10.40;99.90
55795;DHT22;41716;51.910;4.430;2023-01-04T02:33:36;10.40;99.90
55795;DHT22;41716;51.910;4.430;2023-01-04T02:38:50;11.40;99.90
55795;DHT22;41716;51.910;4.430;2023-01-04T02:44:01;10.20;99.90
55795;DHT22;41716;51.910;4.430;2023-01-04T02:49:24;10.80;99.90
55795;DHT22;41716;51.910;4.430;2023-01-04T02:54:44;10.50;99.90
55795;DHT22;41716;51.910;4.430;2023-01-04T03:00:08;11.30;99.90
55795;DHT22;41716;51.910;4.430;2023-01-04T03:05:14;10.30;99.90
55795;DHT22;41716;51.910;4.430;2023-01-04T03:10:58;11.50;99.90
55795;DHT22;41716;51.910;4.430;2023-01-04T03:16:06;11.20;99.90
55795;DHT22;41716;51.910;4.430;2023-01-04T03:21:12;11.10;99.90
55795;DHT22;41716;51.910;4.430;2023-01-04T03:26:18;10.70;99.90
55795;DHT22;41716;51.910;4.430;2023-01-04T03:31:41;10.40;99.90
55795;DHT22;41716;51.910;4.430;2023-01-04T03:37:07;10.90;99.90
55795;DHT22;41716;51.910;4.430;2023-01-04T03:42:17;11.40;99.90
55795;DHT22;41716;51.910;4.430;2023-01-04T03:47:50;10.50;99.90
55795;DHT22;41716;51.910;4.430;2023-01-04T03:53:15;11.30;99.90
55795;DHT22;41716;51.910;4.430;2023-01-04T03:58:18;10.70;99.90
55795;DHT22;41716;51.910;4.430;2023-01-04T04:03:20;11.50;99.90
55795;DHT22;41716;51.910;4.430;2023-01-04T04:08:24;11.20;99.90
55795;DHT22;41716;51.910;4.430;2023-01-04T04:13:27;11.40;99.90
55795;DHT22;41716;51.910;4.430;2023-01-04T04:18:28;10.80;99.90
55795;DHT22;41716;51.910;4.430;2023-01-04T04:23:32;10.40;99.90
55795;DHT22;41716;51.910;4.430;2023-01-04T04:28:33;11.40;99.90
55795;DHT22;41716;51.910;4.430;2023-01-04T04:33:35;11.30;99.90
55795;DHT22;41716;51.910;4.430;2023-01-04T04:38:38;10.70;99.90
55795;DHT22;41716;51.910;4.430;2023-01-04T04:43:40;11.90;99.90
55795;DHT22;41716;51.910;4.430;2023-01-04T04:48:42;11.90;99.90
55795;DHT22;41716;51.910;4.430;2023-01-04T04:53:45;11.80;99.90
55795;DHT22;41716;51.910;4.430;2023-01-04T04:58:46;10.70;99.90
55795;DHT22;41716;51.910;4.430;2023-01-04T05:03:48;11.00;99.90
55795;DHT22;41716;51.910;4.430;2023-01-04T05:08:51;11.70;99.90
55795;DHT22;41716;51.910;4.430;2023-01-04T05:13:53;12.00;99.90
55795;DHT22;41716;51.910;4.430;2023-01-04T05:18:55;11.70;99.90
55795;DHT22;41716;51.910;4.430;2023-01-04T05:23:58;11.00;99.90
55795;DHT22;41716;51.910;4.430;2023-01-04T05:29:00;12.00;99.90
55795;DHT22;41716;51.910;4.430;2023-01-04T05:34:01;11.70;99.90
55795;DHT22;41716;51.910;4.430;2023-01-04T05:39:04;11.20;99.90
55795;DHT22;41716;51.910;4.430;2023-01-04T05:44:07;10.90;99.90
55795;DHT22;41716;51.910;4.430;2023-01-04T05:49:09;11.10;99.90
55795;DHT22;41716;51.910;4.430;2023-01-04T05:54:12;10.80;99.90
55795;DHT22;41716;51.910;4.430;2023-01-04T05:59:14;11.00;99.90
55795;DHT22;41716;51.910;4.430;2023-01-04T06:04:16;10.80;99.90
55795;DHT22;41716;51.910;4.430;2023-01-04T06:09:19;11.00;99.90
55795;DHT22;41716;51.910;4.430;2023-01-04T06:14:24;12.20;99.90
55795;DHT22;41716;51.910;4.430;2023-01-04T06:19:26;11.90;99.90
55795;DHT22;41716;51.910;4.430;2023-01-04T06:24:29;12.30;99.90
55795;DHT22;41716;51.910;4.430;2023-01-04T06:29:30;12.30;99.90
55795;DHT22;41716;51.910;4.430;2023-01-04T06:34:32;11.10;99.90
55795;DHT22;41716;51.910;4.430;2023-01-04T06:39:35;11.80;99.90
55795;DHT22;41716;51.910;4.430;2023-01-04T06:44:37;11.10;99.90
55795;DHT22;41716;51.910;4.430;2023-01-04T06:49:39;10.70;99.90
55795;DHT22;41716;51.910;4.430;2023-01-04T06:54:42;10.90;99.90
55795;DHT22;41716;51.910;4.430;2023-01-04T06:59:43;11.10;99.90
55795;DHT22;41716;51.910;4.430;2023-01-04T07:04:45;10.80;99.90
55795;DHT22;41716;51.910;4.430;2023-01-04T07:09:48;12.20;99.90
55795;DHT22;41716;51.910;4.430;2023-01-04T07:14:50;11.00;99.90
55795;DHT22;41716;51.910;4.430;2023-01-04T07:19:52;12.30;99.90
55795;DHT22;41716;51.910;4.430;2023-01-04T07:24:55;11.00;99.90
55795;DHT22;41716;51.910;4.430;2023-01-04T07:29:57;12.20;99.90
55795;DHT22;41716;51.910;4.430;2023-01-04T07:34:59;11.30;99.90
55795;DHT22;41716;51.910;4.430;2023-01-04T07:40:02;11.10;99.90
55795;DHT22;41716;51.910;4.430;2023-01-04T07:45:05;12.00;99.90
55795;DHT22;41716;51.910;4.430;2023-01-04T07:50:08;12.30;99.90
55795;DHT22;41716;51.910;4.430;2023-01-04T07:55:11;12.40;99.90
55795;DHT22;41716;51.910;4.430;2023-01-04T08:00:13;12.50;99.90
55795;DHT22;41716;51.910;4.430;2023-01-04T08:05:15;11.80;99.90
55795;DHT22;41716;51.910;4.430;2023-01-04T08:10:18;12.20;99.90
55795;DHT22;41716;51.910;4.430;2023-01-04T08:15:20;12.50;99.90
55795;DHT22;41716;51.910;4.430;2023-01-04T08:20:22;11.30;99.90
55795;DHT22;41716;51.910;4.430;2023-01-04T08:25:25;12.60;99.90
55795;DHT22;41716;51.910;4.430;2023-01-04T08:30:27;13.00;99.90
55795;DHT22;41716;51.910;4.430;2023-01-04T08:35:30;11.80;99.90
55795;DHT22;41716;51.910;4.430;2023-01-04T08:40:33;11.10;99.90
55795;DHT22;41716;51.910;4.430;2023-01-04T08:45:35;12.80;99.90
55795;DHT22;41716;51.910;4.430;2023-01-04T08:50:36;12.50;99.90
55795;DHT22;41716;51.910;4.430;2023-01-04T08:55:40;11.70;99.90
55795;DHT22;41716;51.910;4.430;2023-01-04T09:00:41;12.80;99.90
55795;DHT22;41716;51.910;4.430;2023-01-04T09:05:43;13.10;99.90
55795;DHT22;41716;51.910;4.430;2023-01-04T09:10:47;11.10;99.90
55795;DHT22;41716;51.910;4.430;2023-01-04T09:15:49;11.70;99.90
55795;DHT22;41716;51.910;4.430;2023-01-04T09:20:50;11.30;99.90
55795;DHT22;41716;51.910;4.430;2023-01-04T09:25:53;11.50;99.90
55795;DHT22;41716;51.910;4.430;2023-01-04T09:30:55;11.90;99.90
55795;DHT22;41716;51.910;4.430;2023-01-04T09:36:00;12.00;99.90
55795;DHT22;41716;51.910;4.430;2023-01-04T09:41:13;11.00;99.90
55795;DHT22;41716;51.910;4.430;2023-01-04T09:46:28;11.80;99.90
55795;DHT22;41716;51.910;4.430;2023-01-04T09:51:36;11.60;99.90
55795;DHT22;41716;51.910;4.430;2023-01-04T09:56:47;11.50;99.90
55795;DHT22;41716;51.910;4.430;2023-01-04T10:07:31;11.50;99.90
55795;DHT22;41716;51.910;4.430;2023-01-04T10:12:45;11.70;99.90
55795;DHT22;41716;51.910;4.430;2023-01-04T10:18:04;11.70;99.90
55795;DHT22;41716;51.910;4.430;2023-01-04T10:23:14;13.10;99.90
55795;DHT22;41716;51.910;4.430;2023-01-04T10:28:30;13.10;99.90
55795;DHT22;41716;51.910;4.430;2023-01-04T10:33:39;13.00;99.90
55795;DHT22;41716;51.910;4.430;2023-01-04T10:38:43;13.10;99.90
55795;DHT22;41716;51.910;4.430;2023-01-04T10:43:48;12.10;99.90
55795;DHT22;41716;51.910;4.430;2023-01-04T10:48:57;13.00;99.90
55795;DHT22;41716;51.910;4.430;2023-01-04T10:54:09;12.40;99.90
55795;DHT22;41716;51.910;4.430;2023-01-04T10:59:18;13.10;99.90
55795;DHT22;41716;51.910;4.430;2023-01-04T11:04:26;13.10;99.90
55795;DHT22;41716;51.910;4.430;2023-01-04T11:09:34;12.10;99.90
55795;DHT22;41716;51.910;4.430;2023-01-04T11:14:40;12.00;99.90
55795;DHT22;41716;51.910;4.430;2023-01-04T11:19:43;12.90;99.90
55795;DHT22;41716;51.910;4.430;2023-01-04T11:24:47;13.40;99.90
55795;DHT22;41716;51.910;4.430;2023-01-04T11:29:57;13.20;99.90
55795;DHT22;41716;51.910;4.430;2023-01-04T11:35:00;13.20;99.90
55795;DHT22;41716;51.910;4.430;2023-01-04T11:40:22;13.10;99.90
55795;DHT22;41716;51.910;4.430;2023-01-04T11:45:27;12.40;99.90
55795;DHT22;41716;51.910;4.430;2023-01-04T11:50:38;13.10;99.90
55795;DHT22;41716;51.910;4.430;2023-01-04T11:55:40;12.30;99.90
55795;DHT22;41716;51.910;4.430;2023-01-04T12:00:49;12.80;99.90
55795;DHT22;41716;51.910;4.430;2023-01-04T12:05:51;13.20;99.90
55795;DHT22;41716;51.910;4.430;2023-01-04T12:10:53;12.20;99.90
55795;DHT22;41716;51.910;4.430;2023-01-04T12:16:03;12.90;99.90
55795;DHT22;41716;51.910;4.430;2023-01-04T12:21:13;12.90;99.90
55795;DHT22;41716;51.910;4.430;2023-01-04T12:26:16;13.10;99.90
55795;DHT22;41716;51.910;4.430;2023-01-04T12:31:28;12.30;99.90
55795;DHT22;41716;51.910;4.430;2023-01-04T12:36:53;13.10;99.90
55795;DHT22;41716;51.910;4.430;2023-01-04T12:42:16;12.30;99.90
55795;DHT22;41716;51.910;4.430;2023-01-04T12:47:43;13.40;99.90
55795;DHT22;41716;51.910;4.430;2023-01-04T12:53:03;13.00;99.90
55795;DHT22;41716;51.910;4.430;2023-01-04T13:04:38;12.70;99.90
55795;DHT22;41716;51.910;4.430;2023-01-04T13:09:44;12.10;99.90
55795;DHT22;41716;51.910;4.430;2023-01-04T13:14:50;12.90;99.90
55795;DHT22;41716;51.910;4.430;2023-01-04T13:19:55;13.00;99.90
55795;DHT22;41716;51.910;4.430;2023-01-04T13:24:58;12.20;99.90
55795;DHT22;41716;51.910;4.430;2023-01-04T13:30:03;13.00;99.90
55795;DHT22;41716;51.910;4.430;2023-01-04T13:35:15;12.70;99.90
55795;DHT22;41716;51.910;4.430;2023-01-04T13:40:22;12.50;99.90
55795;DHT22;41716;51.910;4.430;2023-01-04T13:45:45;13.20;99.90
55795;DHT22;41716;51.910;4.430;2023-01-04T13:51:04;13.30;99.90
55795;DHT22;41716;51.910;4.430;2023-01-04T13:56:18;12.60;99.90
55795;DHT22;41716;51.910;4.430;2023-01-04T14:01:23;13.30;99.90
55795;DHT22;41716;51.910;4.430;2023-01-04T14:06:29;13.30;99.90
55795;DHT22;41716;51.910;4.430;2023-01-04T14:11:34;12.90;99.90
55795;DHT22;41716;51.910;4.430;2023-01-04T14:17:15;13.40;99.90
55795;DHT22;41716;51.910;4.430;2023-01-04T14:22:32;12.60;99.90
55795;DHT22;41716;51.910;4.430;2023-01-04T14:27:37;12.60;99.90
55795;DHT22;41716;51.910;4.430;2023-01-04T14:32:39;13.20;99.90
55795;DHT22;41716;51.910;4.430;2023-01-04T14:37:42;12.70;99.90
55795;DHT22;41716;51.910;4.430;2023-01-04T14:42:46;12.40;99.90
55795;DHT22;41716;51.910;4.430;2023-01-04T14:47:48;13.10;99.90
55795;DHT22;41716;51.910;4.430;2023-01-04T14:52:53;12.80;99.90
55795;DHT22;41716;51.910;4.430;2023-01-04T14:57:55;12.60;99.90
55795;DHT22;41716;51.910;4.430;2023-01-04T15:02:56;12.70;99.90
55795;DHT22;41716;51.910;4.430;2023-01-04T15:08:01;12.30;99.90
55795;DHT22;41716;51.910;4.430;2023-01-04T15:13:04;12.30;99.90
55795;DHT22;41716;51.910;4.430;2023-01-04T15:18:06;12.20;99.90
55795;DHT22;41716;51.910;4.430;2023-01-04T15:23:10;12.20;99.90
55795;DHT22;41716;51.910;4.430;2023-01-04T15:28:12;12.30;99.90
55795;DHT22;41716;51.910;4.430;2023-01-04T15:33:18;12.70;99.90
55795;DHT22;41716;51.910;4.430;2023-01-04T15:38:21;12.20;99.90
55795;DHT22;41716;51.910;4.430;2023-01-04T15:43:23;12.20;99.90
55795;DHT22;41716;51.910;4.430;2023-01-04T15:48:25;12.30;99.90
55795;DHT22;41716;51.910;4.430;2023-01-04T15:53:30;12.00;99.90
55795;DHT22;41716;51.910;4.430;2023-01-04T15:58:31;12.40;99.90
55795;DHT22;41716;51.910;4.430;2023-01-04T16:03:41;12.60;99.90
55795;DHT22;41716;51.910;4.430;2023-01-04T16:08:44;12.50;99.90
55795;DHT22;41716;51.910;4.430;2023-01-04T16:13:50;12.20;99.90
55795;DHT22;41716;51.910;4.430;2023-01-04T16:18:53;12.10;99.90
55795;DHT22;41716;51.910;4.430;2023-01-04T16:23:57;11.90;99.90
55795;DHT22;41716;51.910;4.430;2023-01-04T16:29:03;12.60;99.90
55795;DHT22;41716;51.910;4.430;2023-01-04T16:34:04;12.40;99.90
55795;DHT22;41716;51.910;4.430;2023-01-04T16:39:08;12.40;99.90
55795;DHT22;41716;51.910;4.430;2023-01-04T16:44:14;11.80;99.90
55795;DHT22;41716;51.910;4.430;2023-01-04T16:49:17;11.90;99.90
55795;DHT22;41716;51.910;4.430;2023-01-04T16:54:20;12.50;99.90
55795;DHT22;41716;51.910;4.430;2023-01-04T16:59:22;12.10;99.90
55795;DHT22;41716;51.910;4.430;2023-01-04T17:04:30;12.20;99.90
55795;DHT22;41716;51.910;4.430;2023-01-04T17:09:35;11.90;99.90
55795;DHT22;41716;51.910;4.430;2023-01-04T17:14:40;12.30;99.90
55795;DHT22;41716;51.910;4.430;2023-01-04T17:19:45;12.30;99.90
55795;DHT22;41716;51.910;4.430;2023-01-04T17:24:48;11.90;99.90
55795;DHT22;41716;51.910;4.430;2023-01-04T17:29:51;12.40;99.90
55795;DHT22;41716;51.910;4.430;2023-01-04T17:34:53;12.00;99.90
55795;DHT22;41716;51.910;4.430;2023-01-04T17:39:58;12.30;99.90
55795;DHT22;41716;51.910;4.430;2023-01-04T17:45:01;11.90;99.90
55795;DHT22;41716;51.910;4.430;2023-01-04T17:50:04;11.80;99.90
55795;DHT22;41716;51.910;4.430;2023-01-04T17:55:08;11.90;99.90
55795;DHT22;41716;51.910;4.430;2023-01-04T18:00:10;12.10;99.90
55795;DHT22;41716;51.910;4.430;2023-01-04T18:05:14;12.20;99.90
55795;DHT22;41716;51.910;4.430;2023-01-04T18:10:18;11.80;99.90
55795;DHT22;41716;51.910;4.430;2023-01-04T18:15:20;12.20;99.90
55795;DHT22;41716;51.910;4.430;2023-01-04T18:20:22;12.10;99.90
55795;DHT22;41716;51.910;4.430;2023-01-04T18:25:31;12.00;99.90
55795;DHT22;41716;51.910;4.430;2023-01-04T18:30:34;11.90;99.90
55795;DHT22;41716;51.910;4.430;2023-01-04T18:35:36;12.10;99.90
55795;DHT22;41716;51.910;4.430;2023-01-04T18:40:45;11.60;99.90
55795;DHT22;41716;51.910;4.430;2023-01-04T18:45:53;12.10;99.90
55795;DHT22;41716;51.910;4.430;2023-01-04T18:51:01;12.10;99.90
55795;DHT22;41716;51.910;4.430;2023-01-04T18:56:10;12.00;99.90
55795;DHT22;41716;51.910;4.430;2023-01-04T19:01:15;12.10;99.90
55795;DHT22;41716;51.910;4.430;2023-01-04T19:06:19;11.70;99.90
55795;DHT22;41716;51.910;4.430;2023-01-04T19:11:24;12.10;99.90
55795;DHT22;41716;51.910;4.430;2023-01-04T19:16:25;12.20;99.90
55795;DHT22;41716;51.910;4.430;2023-01-04T19:21:30;11.70;99.90
55795;DHT22;41716;51.910;4.430;2023-01-04T19:26:33;11.90;99.90
55795;DHT22;41716;51.910;4.430;2023-01-04T19:31:38;12.10;99.90
55795;DHT22;41716;51.910;4.430;2023-01-04T19:36:39;11.80;99.90
55795;DHT22;41716;51.910;4.430;2023-01-04T19:41:42;12.00;99.90
55795;DHT22;41716;51.910;4.430;2023-01-04T19:46:44;12.10;99.90
55795;DHT22;41716;51.910;4.430;2023-01-04T19:51:49;11.70;99.90
55795;DHT22;41716;51.910;4.430;2023-01-04T19:56:52;12.20;99.90
55795;DHT22;41716;51.910;4.430;2023-01-04T20:01:54;11.70;99.90
55795;DHT22;41716;51.910;4.430;2023-01-04T20:06:56;12.10;99.90
55795;DHT22;41716;51.910;4.430;2023-01-04T20:11:59;11.80;99.90
55795;DHT22;41716;51.910;4.430;2023-01-04T20:17:01;11.80;99.90
55795;DHT22;41716;51.910;4.430;2023-01-04T20:22:03;11.70;99.90
55795;DHT22;41716;51.910;4.430;2023-01-04T20:27:08;12.00;99.90
55795;DHT22;41716;51.910;4.430;2023-01-04T20:32:11;11.80;99.90
55795;DHT22;41716;51.910;4.430;2023-01-04T20:37:13;12.00;99.90
55795;DHT22;41716;51.910;4.430;2023-01-04T20:42:17;12.10;99.90
55795;DHT22;41716;51.910;4.430;2023-01-04T20:47:36;12.00;99.90
55795;DHT22;41716;51.910;4.430;2023-01-04T20:52:38;11.80;99.90
55795;DHT22;41716;51.910;4.430;2023-01-04T20:57:43;12.10;99.90
55795;DHT22;41716;51.910;4.430;2023-01-04T21:02:45;12.10;99.90
55795;DHT22;41716;51.910;4.430;2023-01-04T21:07:49;11.90;99.90
55795;DHT22;41716;51.910;4.430;2023-01-04T21:12:55;11.90;99.90
55795;DHT22;41716;51.910;4.430;2023-01-04T21:17:57;11.80;99.90
55795;DHT22;41716;51.910;4.430;2023-01-04T21:22:59;11.80;99.90
55795;DHT22;41716;51.910;4.430;2023-01-04T21:28:02;11.40;99.90
55795;DHT22;41716;51.910;4.430;2023-01-04T21:33:04;11.50;99.90
55795;DHT22;41716;51.910;4.430;2023-01-04T21:38:08;11.60;99.90
55795;DHT22;41716;51.910;4.430;2023-01-04T21:43:16;11.60;99.90
55795;DHT22;41716;51.910;4.430;2023-01-04T21:48:19;11.70;99.90
55795;DHT22;41716;51.910;4.430;2023-01-04T21:53:21;11.30;99.90
55795;DHT22;41716;51.910;4.430;2023-01-04T21:58:30;11.60;99.90
55795;DHT22;41716;51.910;4.430;2023-01-04T22:03:32;11.40;99.90
55795;DHT22;41716;51.910;4.430;2023-01-04T22:08:34;11.20;99.90
55795;DHT22;41716;51.910;4.430;2023-01-04T22:13:37;11.20;99.90
55795;DHT22;41716;51.910;4.430;2023-01-04T22:18:39;11.10;99.90
55795;DHT22;41716;51.910;4.430;2023-01-04T22:23:42;11.10;99.90
55795;DHT22;41716;51.910;4.430;2023-01-04T22:28:46;11.40;99.90
55795;DHT22;41716;51.910;4.430;2023-01-04T22:33:47;11.10;99.90
55795;DHT22;41716;51.910;4.430;2023-01-04T22:38:50;11.10;99.90
55795;DHT22;41716;51.910;4.430;2023-01-04T22:43:58;11.10;99.90
55795;DHT22;41716;51.910;4.430;2023-01-04T22:49:01;11.40;99.90
55795;DHT22;41716;51.910;4.430;2023-01-04T22:54:05;11.30;99.90
55795;DHT22;41716;51.910;4.430;2023-01-04T22:59:09;11.20;99.90
55795;DHT22;41716;51.910;4.430;2023-01-04T23:04:14;11.30;99.90
55795;DHT22;41716;51.910;4.430;2023-01-04T23:09:29;11.40;99.90
55795;DHT22;41716;51.910;4.430;2023-01-04T23:14:32;11.30;99.90
55795;DHT22;41716;51.910;4.430;2023-01-04T23:19:39;11.20;99.90
55795;DHT22;41716;51.910;4.430;2023-01-04T23:24:41;11.30;99.90
55795;DHT22;41716;51.910;4.430;2023-01-04T23:29:44;11.60;99.90
55795;DHT22;41716;51.910;4.430;2023-01-04T23:34:49;11.30;99.90
55795;DHT22;41716;51.910;4.430;2023-01-04T23:39:50;11.00;99.90
55795;DHT22;41716;51.910;4.430;2023-01-04T23:44:53;11.10;99.90
55795;DHT22;41716;51.910;4.430;2023-01-04T23:49:55;11.00;99.90
55795;DHT22;41716;51.910;4.430;2023-01-04T23:54:57;11.10;99.90
